createdAt,value
2023-05-08T00:01:55.427Z,15.88
2023-05-08T00:04:23.478Z,17.33
2023-05-08T00:06:52.971Z,16.30
2023-05-08T00:09:21.155Z,15.63
2023-05-08T00:11:49.489Z,16.83
2023-05-08T00:14:17.535Z,15.63
2023-05-08T00:16:45.739Z,15.48
2023-05-08T00:19:15.179Z,16.38
2023-05-08T00:21:43.234Z,14.82
2023-05-08T00:24:11.269Z,15.13
2023-05-08T00:26:39.316Z,15.32
2023-05-08T00:29:07.368Z,18.77
2023-05-08T00:31:35.437Z,16.45
2023-05-08T00:34:03.772Z,16.48
2023-05-08T00:36:33.383Z,15.73
2023-05-08T00:39:01.568Z,15.07
2023-05-08T00:41:29.687Z,16.23
2023-05-08T00:43:58.014Z,15.00
2023-05-08T00:46:26.419Z,16.85
2023-05-08T00:48:54.872Z,16.35
2023-05-08T00:51:23.687Z,16.90
2023-05-08T00:53:53.210Z,16.85
2023-05-08T00:56:22.322Z,15.98
2023-05-08T00:58:50.848Z,13.82
2023-05-08T01:01:21.808Z,16.50
2023-05-08T01:03:50.088Z,15.63
2023-05-08T01:06:21.396Z,15.27
2023-05-08T01:08:52.039Z,15.73
2023-05-08T01:11:35.112Z,16.35
2023-05-08T01:14:12.562Z,15.18
2023-05-08T01:16:45.347Z,16.17
2023-05-08T01:19:41.976Z,15.00
2023-05-08T01:22:18.427Z,15.07
2023-05-08T01:25:17.871Z,14.55
2023-05-08T01:28:15.630Z,16.58
2023-05-08T01:31:03.583Z,16.23
2023-05-08T01:33:39.296Z,16.48
2023-05-08T01:36:18.931Z,16.52
2023-05-08T01:38:54.843Z,15.30
2023-05-08T01:41:27.355Z,17.65
2023-05-08T01:44:07.368Z,15.50
2023-05-08T01:46:35.564Z,16.23
2023-05-08T01:49:10.356Z,16.73
2023-05-08T01:51:43.725Z,15.45
2023-05-08T01:54:16.610Z,16.08
2023-05-08T01:56:48.122Z,17.08
2023-05-08T01:59:20.896Z,15.95
2023-05-08T02:01:50.450Z,16.58
2023-05-08T02:04:21.994Z,17.75
2023-05-08T02:06:52.175Z,16.73
2023-05-08T02:09:23.732Z,15.18
2023-05-08T02:11:53.223Z,16.30
2023-05-08T02:14:22.188Z,15.90
2023-05-08T02:16:52.746Z,16.60
2023-05-08T02:19:24.510Z,17.70
2023-05-08T02:21:54.030Z,16.58
2023-05-08T02:24:23.471Z,16.48
2023-05-08T02:26:54.443Z,17.05
2023-05-08T02:29:25.028Z,16.75
2023-05-08T02:31:56.089Z,18.02
2023-05-08T02:34:26.796Z,16.23
2023-05-08T02:36:55.558Z,18.52
2023-05-08T02:39:27.282Z,16.65
2023-05-08T02:41:55.471Z,17.98
2023-05-08T02:44:24.921Z,17.55
2023-05-08T02:46:58.458Z,16.55
2023-05-08T02:49:33.169Z,17.77
2023-05-08T02:52:06.815Z,17.90
2023-05-08T02:54:43.430Z,20.88
2023-05-08T02:57:19.832Z,17.55
2023-05-08T02:59:55.870Z,18.40
2023-05-08T03:02:33.383Z,17.85
2023-05-08T03:05:06.828Z,18.20
2023-05-08T03:07:39.450Z,17.95
2023-05-08T03:10:13.094Z,18.42
2023-05-08T03:12:44.110Z,18.77
2023-05-08T03:15:18.973Z,19.60
2023-05-08T03:17:48.030Z,18.30
2023-05-08T03:20:19.834Z,17.63
2023-05-08T03:22:49.684Z,19.10
2023-05-08T03:25:19.702Z,18.83
2023-05-08T03:27:50.201Z,17.10
2023-05-08T03:30:19.633Z,19.45
2023-05-08T03:32:58.573Z,19.42
2023-05-08T03:35:29.446Z,22.52
2023-05-08T03:37:57.837Z,19.70
2023-05-08T03:40:26.160Z,19.35
2023-05-08T03:42:54.581Z,18.23
2023-05-08T03:45:23.676Z,17.55
2023-05-08T03:47:53.878Z,18.73
2023-05-08T03:50:23.062Z,18.88
2023-05-08T03:52:53.349Z,18.83
2023-05-08T03:55:21.698Z,19.30
2023-05-08T03:57:57.266Z,18.55
2023-05-08T04:00:33.111Z,18.60
2023-05-08T04:03:13.456Z,19.05
2023-05-08T04:05:51.393Z,19.02
2023-05-08T04:08:27.141Z,17.88
2023-05-08T04:11:05.393Z,19.60
2023-05-08T04:13:38.561Z,19.08
2023-05-08T04:16:13.152Z,20.92
2023-05-08T04:18:46.817Z,19.00
2023-05-08T04:21:21.440Z,19.33
2023-05-08T04:23:52.798Z,22.50
2023-05-08T04:26:20.956Z,18.20
2023-05-08T04:28:50.484Z,18.05
2023-05-08T04:31:19.051Z,19.38
2023-05-08T04:33:48.031Z,18.33
2023-05-08T04:36:16.196Z,18.60
2023-05-08T04:38:45.968Z,17.58
2023-05-08T04:41:16.111Z,19.52
2023-05-08T04:43:44.854Z,17.80
2023-05-08T04:46:13.572Z,19.33
2023-05-08T04:48:41.688Z,18.08
2023-05-08T04:51:09.723Z,18.00
2023-05-08T04:53:37.860Z,18.05
2023-05-08T04:56:06.467Z,16.90
2023-05-08T04:58:36.081Z,18.92
2023-05-08T05:01:04.699Z,20.52
2023-05-08T05:03:34.058Z,19.75
2023-05-08T05:06:02.771Z,18.88
2023-05-08T05:08:30.788Z,19.23
2023-05-08T05:10:59.909Z,16.52
2023-05-08T05:13:28.962Z,18.58
2023-05-08T05:16:00.485Z,19.85
2023-05-08T05:18:28.602Z,18.17
2023-05-08T05:20:59.277Z,17.95
2023-05-08T05:23:28.082Z,19.98
2023-05-08T05:25:56.127Z,19.58
2023-05-08T05:28:24.338Z,19.42
2023-05-08T05:30:52.676Z,22.80
2023-05-08T05:33:22.177Z,18.95
2023-05-08T05:35:50.667Z,19.55
2023-05-08T05:38:18.834Z,19.67
2023-05-08T05:40:46.856Z,19.92
2023-05-08T05:43:14.946Z,22.25
2023-05-08T05:45:43.041Z,19.38
2023-05-08T05:48:11.466Z,18.35
2023-05-08T05:50:40.950Z,18.95
2023-05-08T05:53:09.904Z,22.45
2023-05-08T05:55:38.233Z,18.85
2023-05-08T05:58:06.785Z,19.95
2023-05-08T06:00:36.297Z,18.75
2023-05-08T06:03:04.835Z,19.63
2023-05-08T06:05:33.095Z,19.88
2023-05-08T06:08:02.652Z,19.00
2023-05-08T06:10:31.091Z,19.10
2023-05-08T06:12:59.203Z,18.38
2023-05-08T06:15:27.943Z,18.55
2023-05-08T06:17:56.109Z,19.30
2023-05-08T06:20:26.293Z,18.98
2023-05-08T06:22:54.644Z,20.17
2023-05-08T06:25:24.217Z,18.83
2023-05-08T06:27:52.276Z,18.17
2023-05-08T06:30:20.314Z,18.75
2023-05-08T06:32:48.403Z,18.27
2023-05-08T06:35:18.535Z,18.77
2023-05-08T06:37:46.648Z,19.48
2023-05-08T06:40:15.112Z,18.67
2023-05-08T06:42:44.577Z,17.80
2023-05-08T06:45:13.602Z,18.67
2023-05-08T06:47:41.893Z,20.65
2023-05-08T06:50:10.837Z,17.77
2023-05-08T06:52:39.118Z,17.45
2023-05-08T06:55:07.806Z,17.25
2023-05-08T06:57:36.068Z,17.90
2023-05-08T07:00:06.231Z,19.60
2023-05-08T07:02:34.304Z,18.10
2023-05-08T07:05:03.299Z,17.92
2023-05-08T07:07:31.565Z,17.17
2023-05-08T07:09:59.715Z,17.63
2023-05-08T07:12:27.730Z,17.83
2023-05-08T07:14:57.258Z,17.38
2023-05-08T07:17:27.595Z,17.38
2023-05-08T07:19:55.644Z,17.45
2023-05-08T07:22:23.652Z,18.50
2023-05-08T07:24:51.715Z,19.83
2023-05-08T07:27:20.305Z,17.55
2023-05-08T07:29:48.358Z,17.27
2023-05-08T07:32:16.433Z,18.83
2023-05-08T07:34:45.906Z,20.98
2023-05-08T07:37:14.146Z,18.20
2023-05-08T07:39:42.234Z,18.50
2023-05-08T07:42:10.243Z,19.20
2023-05-08T07:44:51.030Z,17.10
2023-05-08T07:47:22.714Z,17.65
2023-05-08T07:49:52.627Z,18.58
2023-05-08T07:52:20.644Z,19.83
2023-05-08T07:54:48.809Z,19.13
2023-05-08T07:57:16.819Z,21.80
2023-05-08T07:59:44.845Z,17.73
2023-05-08T08:02:13.139Z,19.73
2023-05-08T08:04:41.276Z,17.23
2023-05-08T08:07:10.658Z,16.65
2023-05-08T08:09:38.718Z,18.92
2023-05-08T08:12:07.115Z,16.73
2023-05-08T08:14:35.169Z,16.98
2023-05-08T08:17:03.216Z,17.00
2023-05-08T08:19:31.275Z,17.17
2023-05-08T08:21:59.437Z,18.80
2023-05-08T08:24:29.777Z,18.08
2023-05-08T08:26:58.167Z,17.67
2023-05-08T08:29:26.176Z,16.77
2023-05-08T08:31:54.220Z,16.25
2023-05-08T08:34:22.259Z,18.73
2023-05-08T08:36:50.437Z,16.52
2023-05-08T08:39:18.450Z,18.77
2023-05-08T08:41:48.163Z,17.70
2023-05-08T08:44:16.275Z,18.85
2023-05-08T08:46:49.331Z,17.63
2023-05-08T08:49:20.113Z,18.02
2023-05-08T08:51:52.815Z,16.98
2023-05-08T08:54:24.293Z,17.45
2023-05-08T08:56:54.403Z,17.25
2023-05-08T08:59:26.229Z,17.67
2023-05-08T09:01:57.824Z,19.25
2023-05-08T09:04:27.537Z,18.98
2023-05-08T09:06:58.166Z,17.55
2023-05-08T09:09:26.727Z,21.73
2023-05-08T09:11:56.124Z,17.92
2023-05-08T09:14:25.849Z,19.20
2023-05-08T09:16:55.026Z,17.27
2023-05-08T09:19:27.066Z,16.90
2023-05-08T09:21:56.465Z,18.42
2023-05-08T09:24:24.659Z,18.98
2023-05-08T09:26:52.693Z,18.50
2023-05-08T09:29:22.659Z,18.48
2023-05-08T09:31:52.211Z,18.45
2023-05-08T09:34:28.520Z,17.17
2023-05-08T09:36:57.372Z,19.20
2023-05-08T09:39:26.915Z,17.00
2023-05-08T09:41:59.561Z,16.42
2023-05-08T09:44:29.254Z,18.83
2023-05-08T09:47:12.290Z,19.10
2023-05-08T09:49:40.911Z,18.23
2023-05-08T09:52:09.551Z,20.85
2023-05-08T09:54:37.736Z,18.30
2023-05-08T09:57:13.416Z,19.60
2023-05-08T09:59:42.821Z,19.30
2023-05-08T10:02:16.318Z,17.83
2023-05-08T10:04:44.495Z,20.40
2023-05-08T10:07:12.565Z,21.02
2023-05-08T10:09:50.269Z,18.88
2023-05-08T10:12:19.759Z,18.48
2023-05-08T10:14:49.226Z,19.38
2023-05-08T10:17:22.090Z,18.13
2023-05-08T10:19:56.292Z,19.25
2023-05-08T10:22:26.626Z,18.95
2023-05-08T10:24:58.669Z,21.35
2023-05-08T10:27:35.553Z,20.42
2023-05-08T10:30:06.123Z,17.40
2023-05-08T10:32:40.670Z,18.38
2023-05-08T10:35:12.137Z,18.15
2023-05-08T10:37:42.382Z,19.85
2023-05-08T10:40:12.218Z,18.98
2023-05-08T10:42:41.125Z,18.48
2023-05-08T10:45:11.856Z,18.65
2023-05-08T10:47:52.587Z,18.25
2023-05-08T10:50:35.056Z,20.02
2023-05-08T10:53:09.338Z,17.95
2023-05-08T10:55:38.788Z,21.25
2023-05-08T10:58:11.424Z,17.88
2023-05-08T11:01:16.225Z,20.27
2023-05-08T11:03:47.290Z,19.48
2023-05-08T11:06:16.086Z,19.17
2023-05-08T11:08:49.800Z,20.02
2023-05-08T11:11:26.908Z,17.95
2023-05-08T11:14:00.599Z,19.35
2023-05-08T11:17:06.757Z,19.48
2023-05-08T11:19:37.446Z,19.58
2023-05-08T11:22:23.275Z,19.58
2023-05-08T11:24:55.658Z,21.45
2023-05-08T11:28:07.045Z,19.77
2023-05-08T11:30:37.710Z,18.42
2023-05-08T11:33:33.870Z,20.65
2023-05-08T11:36:14.099Z,20.40
2023-05-08T11:38:43.783Z,19.98
2023-05-08T11:41:21.749Z,20.67
2023-05-08T11:44:18.555Z,19.55
2023-05-08T11:46:51.925Z,20.08
2023-05-08T11:49:26.077Z,20.52
2023-05-08T11:52:00.487Z,19.65
2023-05-08T11:54:32.008Z,23.88
2023-05-08T11:57:01.920Z,20.50
2023-05-08T11:59:30.279Z,20.35
2023-05-08T12:02:07.904Z,20.15
2023-05-08T12:04:45.585Z,20.77
2023-05-08T12:07:16.192Z,19.85
2023-05-08T12:09:44.608Z,21.95
2023-05-08T12:12:12.915Z,21.48
2023-05-08T12:14:41.187Z,19.95
2023-05-08T12:17:09.618Z,21.55
2023-05-08T12:19:37.928Z,22.10
2023-05-08T12:22:06.255Z,20.52
2023-05-08T12:24:36.052Z,19.80
2023-05-08T12:27:05.146Z,20.65
2023-05-08T12:29:37.878Z,18.13
2023-05-08T12:32:06.772Z,20.30
2023-05-08T12:34:36.296Z,21.17
2023-05-08T12:37:06.769Z,20.38
2023-05-08T12:39:40.381Z,22.00
2023-05-08T12:42:08.860Z,23.05
2023-05-08T12:44:37.435Z,19.67
2023-05-08T12:47:07.149Z,20.77
2023-05-08T12:49:35.438Z,20.80
2023-05-08T12:52:08.696Z,20.90
2023-05-08T12:54:40.062Z,18.40
2023-05-08T12:57:12.868Z,22.02
2023-05-08T12:59:41.587Z,23.08
2023-05-08T13:02:17.864Z,26.02
2023-05-08T13:04:47.283Z,20.05
2023-05-08T13:07:15.864Z,20.52
2023-05-08T13:09:59.850Z,21.60
2023-05-08T13:12:28.291Z,23.08
2023-05-08T13:14:56.640Z,22.02
2023-05-08T13:17:25.162Z,21.13
2023-05-08T13:19:53.538Z,21.77
2023-05-08T13:22:23.215Z,21.77
2023-05-08T13:24:51.593Z,21.60
2023-05-08T13:27:21.571Z,22.38
2023-05-08T13:29:49.899Z,21.35
2023-05-08T13:32:18.666Z,21.33
2023-05-08T13:34:50.148Z,20.85
2023-05-08T13:37:19.354Z,21.13
2023-05-08T13:39:47.591Z,20.00
2023-05-08T13:42:15.907Z,19.77
2023-05-08T13:44:45.681Z,22.50
2023-05-08T13:47:13.982Z,19.85
2023-05-08T13:49:42.446Z,20.85
2023-05-08T13:52:10.657Z,19.75
2023-05-08T13:54:39.013Z,21.98
2023-05-08T13:57:08.163Z,22.63
2023-05-08T13:59:36.542Z,21.50
2023-05-08T14:02:06.302Z,23.65
2023-05-08T14:04:34.808Z,21.05
2023-05-08T14:07:03.085Z,20.90
2023-05-08T14:09:31.363Z,22.25
2023-05-08T14:11:59.801Z,22.83
2023-05-08T14:14:28.237Z,21.92
2023-05-08T14:16:56.546Z,20.67
2023-05-08T14:19:26.239Z,22.30
2023-05-08T14:21:54.566Z,21.58
2023-05-08T14:24:22.937Z,19.90
2023-05-08T14:26:51.243Z,19.15
2023-05-08T14:29:19.989Z,22.05
2023-05-08T14:31:48.332Z,18.40
2023-05-08T14:34:16.759Z,22.45
2023-05-08T14:36:46.435Z,21.23
2023-05-08T14:39:14.724Z,21.80
2023-05-08T14:41:51.222Z,18.80
2023-05-08T14:44:31.534Z,21.75
2023-05-08T14:46:59.934Z,16.90
2023-05-08T14:49:37.436Z,20.08
2023-05-08T14:52:08.538Z,20.92
2023-05-08T14:54:36.989Z,20.83
2023-05-08T14:57:05.567Z,20.02
2023-05-08T14:59:33.892Z,18.73
2023-05-08T15:02:02.249Z,20.30
2023-05-08T15:04:30.757Z,18.13
2023-05-08T15:06:59.059Z,19.08
2023-05-08T15:09:28.764Z,20.85
2023-05-08T15:11:57.093Z,18.40
2023-05-08T15:14:26.926Z,18.63
2023-05-08T15:16:55.291Z,17.55
2023-05-08T15:19:23.550Z,18.30
2023-05-08T15:21:51.791Z,18.85
2023-05-08T15:24:20.095Z,16.17
2023-05-08T15:26:50.340Z,18.58
2023-05-08T15:29:18.611Z,17.25
2023-05-08T15:31:47.032Z,17.40
2023-05-08T15:34:15.394Z,18.27
2023-05-08T15:36:43.761Z,19.30
2023-05-08T15:39:11.992Z,16.40
2023-05-08T15:41:41.348Z,18.85
2023-05-08T15:44:11.023Z,17.70
2023-05-08T15:46:39.302Z,18.08
2023-05-08T15:49:07.609Z,17.35
2023-05-08T15:51:35.986Z,21.08
2023-05-08T15:54:04.339Z,18.35
2023-05-08T15:56:32.757Z,19.98
2023-05-08T15:59:01.066Z,18.35
2023-05-08T16:01:30.817Z,19.75
2023-05-08T16:03:59.168Z,21.35
2023-05-08T16:06:27.645Z,17.35
2023-05-08T16:08:55.946Z,19.30
2023-05-08T16:11:24.342Z,19.45
2023-05-08T16:13:52.710Z,19.63
2023-05-08T16:16:21.073Z,19.70
2023-05-08T16:18:50.793Z,20.00
2023-05-08T16:21:19.151Z,19.17
2023-05-08T16:23:47.485Z,20.92
2023-05-08T16:26:16.651Z,20.15
2023-05-08T16:28:44.969Z,18.95
2023-05-08T16:31:13.197Z,19.02
2023-05-08T16:33:41.463Z,19.48
2023-05-08T16:36:11.280Z,20.50
2023-05-08T16:38:39.564Z,18.33
2023-05-08T16:41:09.184Z,19.65
2023-05-08T16:43:37.501Z,19.92
2023-05-08T16:46:07.479Z,19.05
2023-05-08T16:48:36.080Z,19.48
2023-05-08T16:51:04.523Z,19.63
2023-05-08T16:53:34.172Z,18.35
2023-05-08T16:56:02.458Z,18.42
2023-05-08T16:58:30.717Z,21.95
2023-05-08T17:00:59.094Z,20.02
2023-05-08T17:03:27.475Z,19.15
2023-05-08T17:05:55.812Z,18.50
2023-05-08T17:08:24.170Z,19.30
2023-05-08T17:10:54.849Z,21.25
2023-05-08T17:13:22.981Z,18.75
2023-05-08T17:18:19.053Z,19.23
2023-05-08T17:20:47.304Z,20.73
2023-05-08T17:23:15.463Z,20.40
2023-05-08T17:25:43.475Z,20.48
2023-05-08T17:28:12.947Z,21.95
2023-05-08T17:30:41.003Z,19.08
2023-05-08T17:33:09.096Z,21.63
2023-05-08T17:35:37.271Z,20.70
2023-05-08T17:38:05.297Z,19.25
2023-05-08T17:40:33.474Z,20.23
2023-05-08T17:43:01.596Z,19.15
2023-05-08T17:45:31.121Z,20.48
2023-05-08T17:47:59.345Z,19.63
2023-05-08T17:50:27.562Z,20.60
2023-05-08T17:52:55.700Z,17.63
2023-05-08T17:55:26.678Z,18.88
2023-05-08T17:57:55.922Z,21.70
2023-05-08T18:00:24.080Z,20.33
2023-05-08T18:02:55.546Z,26.40
2023-05-08T18:05:23.791Z,17.92
2023-05-08T18:07:52.319Z,19.63
2023-05-08T18:10:21.091Z,20.17
2023-05-08T18:12:49.172Z,21.05
2023-05-08T18:15:17.400Z,23.38
2023-05-08T18:17:45.612Z,21.55
2023-05-08T18:20:15.359Z,24.30
2023-05-08T18:22:43.490Z,25.02
2023-05-08T18:25:11.494Z,26.27
2023-05-08T18:27:41.164Z,25.05
2023-05-08T18:30:10.685Z,23.35
2023-05-08T18:32:38.826Z,23.42
2023-05-08T18:35:07.747Z,25.48
2023-05-08T18:37:37.182Z,24.70
2023-05-08T18:40:05.696Z,25.13
2023-05-08T18:42:33.850Z,27.52
2023-05-08T18:45:01.914Z,28.55
2023-05-08T18:47:29.966Z,23.73
2023-05-08T18:49:59.954Z,21.70
2023-05-08T18:52:28.074Z,24.88
2023-05-08T18:54:57.609Z,24.45
2023-05-08T18:57:25.697Z,23.55
2023-05-08T18:59:53.699Z,23.27
2023-05-08T19:02:24.743Z,25.52
2023-05-08T19:04:52.978Z,23.55
2023-05-08T19:07:21.379Z,23.70
2023-05-08T19:09:49.447Z,24.83
2023-05-08T19:12:18.908Z,22.48
2023-05-08T19:14:47.159Z,24.10
2023-05-08T19:17:15.328Z,25.80
2023-05-08T19:19:43.419Z,22.52
2023-05-08T19:22:11.476Z,24.00
2023-05-08T19:24:39.838Z,24.08
2023-05-08T19:27:07.946Z,23.85
2023-05-08T19:29:37.292Z,25.98
2023-05-08T19:32:05.973Z,25.77
2023-05-08T19:34:37.004Z,25.17
2023-05-08T19:37:05.148Z,26.13
2023-05-08T19:39:33.256Z,28.00
2023-05-08T19:42:01.306Z,29.40
2023-05-08T19:44:31.513Z,30.75
2023-05-08T19:47:03.146Z,30.55
2023-05-08T19:49:32.106Z,28.42
2023-05-08T19:52:00.409Z,27.65
2023-05-08T19:54:28.433Z,27.48
2023-05-08T19:56:56.468Z,27.35
2023-05-08T19:59:24.545Z,23.35
2023-05-08T20:01:53.705Z,27.58
2023-05-08T20:04:24.216Z,23.50
2023-05-08T20:06:52.268Z,24.60
2023-05-08T20:09:20.347Z,23.75
2023-05-08T20:11:48.373Z,23.48
2023-05-08T20:14:16.481Z,24.55
2023-05-08T20:16:44.576Z,25.05
2023-05-08T20:19:12.777Z,25.75
2023-05-08T20:21:42.216Z,24.00
2023-05-08T20:24:10.267Z,24.50
2023-05-08T20:26:38.357Z,24.80
2023-05-08T20:29:06.366Z,25.95
2023-05-08T20:31:34.522Z,27.45
2023-05-08T20:34:02.623Z,28.45
2023-05-08T20:36:31.324Z,27.08
2023-05-08T20:39:00.748Z,29.15
2023-05-08T20:41:28.857Z,27.23
2023-05-08T20:43:56.865Z,26.60
2023-05-08T20:46:24.946Z,25.35
2023-05-08T20:48:52.981Z,27.77
2023-05-08T20:51:21.047Z,27.00
2023-05-08T20:53:49.094Z,25.98
2023-05-08T20:56:19.264Z,27.85
2023-05-08T20:58:47.371Z,28.35
2023-05-08T21:01:15.563Z,28.10
2023-05-08T21:03:43.608Z,26.88
2023-05-08T21:06:13.835Z,25.35
2023-05-08T21:08:41.810Z,26.30
2023-05-08T21:11:09.847Z,26.10
2023-05-08T21:13:39.439Z,23.45
2023-05-08T21:16:08.370Z,25.75
2023-05-08T21:18:36.645Z,24.40
2023-05-08T21:21:04.820Z,24.35
2023-05-08T21:23:32.904Z,22.88
2023-05-08T21:26:01.000Z,23.00
2023-05-08T21:28:29.236Z,22.15
2023-05-08T21:30:59.116Z,24.40
2023-05-08T21:33:27.271Z,23.77
2023-05-08T21:35:55.316Z,23.92
2023-05-08T21:38:23.346Z,22.58
2023-05-08T21:40:51.370Z,22.65
2023-05-08T21:43:19.443Z,21.98
2023-05-08T21:45:47.501Z,22.50
2023-05-08T21:48:16.924Z,22.55
2023-05-08T21:50:44.933Z,24.23
2023-05-08T21:53:12.963Z,21.45
2023-05-08T21:55:40.991Z,21.85
2023-05-08T21:58:09.041Z,24.48
2023-05-08T22:00:37.038Z,24.95
2023-05-08T22:03:05.650Z,24.08
2023-05-08T22:05:35.183Z,23.08
2023-05-08T22:08:03.383Z,23.20
2023-05-08T22:10:31.380Z,26.63
2023-05-08T22:13:00.627Z,24.08
2023-05-08T22:15:30.739Z,24.27
2023-05-08T22:17:59.531Z,25.42
2023-05-08T22:20:27.728Z,23.55
2023-05-08T22:22:57.215Z,23.80
2023-05-08T22:25:25.711Z,24.77
2023-05-08T22:27:54.096Z,23.90
2023-05-08T22:30:22.371Z,24.95
2023-05-08T22:32:55.586Z,25.35
2023-05-08T22:35:24.620Z,24.77
2023-05-08T22:37:53.688Z,23.33
2023-05-08T22:40:23.313Z,22.95
2023-05-08T22:42:53.509Z,25.15
2023-05-08T22:45:23.508Z,23.38
2023-05-08T22:47:51.692Z,26.15
2023-05-08T22:50:20.034Z,24.70
2023-05-08T22:52:48.124Z,23.13
2023-05-08T22:55:16.935Z,25.98
2023-05-08T22:57:46.600Z,25.05
2023-05-08T23:00:16.262Z,25.13
2023-05-08T23:02:44.396Z,25.05
2023-05-08T23:05:12.686Z,24.95
2023-05-08T23:07:40.934Z,29.05
2023-05-08T23:10:09.694Z,26.00
2023-05-08T23:12:37.722Z,27.67
2023-05-08T23:15:08.427Z,27.75
2023-05-08T23:17:36.599Z,27.35
2023-05-08T23:20:05.902Z,26.20
2023-05-08T23:22:33.960Z,28.50
2023-05-08T23:25:02.085Z,27.23
2023-05-08T23:27:30.072Z,27.50
2023-05-08T23:29:58.080Z,29.52
2023-05-08T23:32:27.494Z,28.52
2023-05-08T23:34:55.553Z,25.48
2023-05-08T23:37:23.584Z,27.30
2023-05-08T23:39:51.750Z,27.17
2023-05-08T23:42:20.428Z,28.02
2023-05-08T23:44:48.453Z,29.10
2023-05-08T23:47:16.516Z,27.10
2023-05-08T23:49:45.945Z,28.63
2023-05-08T23:52:14.036Z,29.58
2023-05-08T23:54:42.128Z,27.02
2023-05-08T23:57:10.147Z,28.05
2023-05-08T23:59:38.194Z,27.65
